createdAt,value
2018-02-06T00:01:00.846Z,2.23
2018-02-06T00:03:28.312Z,2.20
2018-02-06T00:05:55.936Z,2.03
2018-02-06T00:08:23.413Z,2.20
2018-02-06T00:10:51.158Z,2.07
2018-02-06T00:13:18.697Z,2.20
2018-02-06T00:15:46.151Z,1.90
2018-02-06T00:18:13.609Z,2.30
2018-02-06T00:20:41.057Z,2.37
2018-02-06T00:23:10.599Z,2.03
2018-02-06T00:25:38.100Z,2.23
2018-02-06T00:28:06.576Z,1.70
2018-02-06T00:30:34.029Z,2.10
2018-02-06T00:33:01.668Z,2.20
2018-02-06T00:35:29.117Z,2.10
2018-02-06T00:37:56.574Z,1.87
2018-02-06T00:40:24.122Z,2.00
2018-02-06T00:42:51.624Z,2.03
2018-02-06T00:45:19.561Z,1.90
2018-02-06T00:47:46.996Z,2.10
2018-02-06T00:50:15.541Z,2.10
2018-02-06T00:52:43.309Z,1.90
2018-02-06T00:55:11.076Z,1.80
2018-02-06T00:57:38.622Z,1.70
2018-02-06T01:00:06.173Z,2.00
2018-02-06T01:02:33.740Z,1.80
2018-02-06T01:05:01.216Z,1.63
2018-02-06T01:07:28.869Z,1.87
2018-02-06T01:09:56.527Z,2.10
2018-02-06T01:12:23.970Z,2.00
2018-02-06T01:14:51.429Z,2.00
2018-02-06T01:17:18.989Z,1.60
2018-02-06T01:19:46.580Z,2.50
2018-02-06T01:22:14.344Z,1.83
2018-02-06T01:24:41.810Z,1.63
2018-02-06T01:27:09.281Z,2.10
2018-02-06T01:29:36.730Z,1.90
2018-02-06T01:32:04.178Z,1.70
2018-02-06T01:34:31.650Z,2.10
2018-02-06T01:36:59.094Z,1.77
2018-02-06T01:39:26.918Z,1.80
2018-02-06T01:41:54.516Z,1.83
2018-02-06T01:44:21.986Z,1.80
2018-02-06T01:46:49.432Z,1.97
2018-02-06T01:49:16.988Z,1.80
2018-02-06T01:51:44.530Z,2.03
2018-02-06T01:54:12.010Z,1.57
2018-02-06T01:56:39.576Z,1.97
2018-02-06T01:59:07.037Z,1.60
2018-02-06T02:01:34.584Z,1.90
2018-02-06T02:04:02.225Z,2.10
2018-02-06T02:06:29.856Z,2.00
2018-02-06T02:08:57.480Z,2.13
2018-02-06T02:11:24.925Z,2.00
2018-02-06T02:13:52.397Z,1.63
2018-02-06T02:16:20.841Z,1.60
2018-02-06T02:18:48.332Z,1.67
2018-02-06T02:21:15.793Z,1.93
2018-02-06T02:23:43.243Z,1.80
2018-02-06T02:26:10.701Z,1.83
2018-02-06T02:28:38.346Z,1.77
2018-02-06T02:31:06.088Z,1.70
2018-02-06T02:33:33.533Z,1.93
2018-02-06T02:36:01.000Z,1.50
2018-02-06T02:38:28.446Z,2.13
2018-02-06T02:40:56.010Z,1.80
2018-02-06T04:39:00.424Z,1.80
2018-02-06T04:41:27.937Z,1.50
2018-02-06T04:43:55.583Z,1.70
2018-02-06T04:46:23.039Z,1.70
2018-02-06T04:48:50.524Z,1.67
2018-02-06T04:51:17.994Z,1.50
2018-02-06T04:53:45.565Z,1.33
2018-02-06T04:56:13.281Z,1.30
2018-02-06T04:58:40.743Z,1.80
2018-02-06T05:01:08.391Z,1.73
2018-02-06T05:03:35.880Z,1.60
2018-02-06T05:06:03.748Z,1.33
2018-02-06T05:08:31.533Z,1.40
2018-02-06T05:10:58.979Z,1.73
2018-02-06T05:13:26.736Z,1.57
2018-02-06T05:15:54.500Z,1.53
2018-02-06T05:18:21.949Z,1.60
2018-02-06T05:20:49.406Z,1.50
2018-02-06T05:23:17.044Z,1.50
2018-02-06T05:25:44.809Z,1.80
2018-02-06T05:28:13.200Z,1.90
2018-02-06T05:30:40.712Z,1.90
2018-02-06T05:33:08.237Z,1.70
2018-02-06T05:35:35.696Z,1.80
2018-02-06T05:38:03.355Z,1.97
2018-02-06T05:40:30.820Z,1.93
2018-02-06T05:42:58.285Z,1.90
2018-02-06T05:45:26.674Z,2.00
2018-02-06T05:47:54.121Z,1.73
2018-02-06T05:50:21.673Z,1.93
2018-02-06T05:52:49.250Z,1.53
2018-02-06T05:55:16.773Z,1.73
2018-02-06T05:57:44.220Z,1.67
2018-02-06T06:00:11.733Z,1.77
2018-02-06T06:02:39.175Z,1.93
2018-02-06T06:05:06.637Z,2.23
2018-02-06T06:07:34.092Z,2.50
2018-02-06T06:10:01.557Z,2.47
2018-02-06T06:12:29.020Z,3.43
2018-02-06T06:14:56.477Z,2.70
2018-02-06T06:17:24.013Z,2.53
2018-02-06T06:19:51.660Z,2.30
2018-02-06T06:22:19.209Z,2.50
2018-02-06T06:24:46.681Z,2.93
2018-02-06T06:27:14.127Z,3.17
2018-02-06T06:29:41.580Z,2.70
2018-02-06T06:32:09.661Z,2.90
2018-02-06T06:34:37.125Z,2.43
2018-02-06T06:37:04.596Z,2.83
2018-02-06T06:39:32.049Z,2.50
2018-02-06T06:42:00.224Z,3.00
2018-02-06T06:44:27.682Z,3.20
2018-02-06T06:46:55.356Z,3.43
2018-02-06T06:49:23.189Z,2.90
2018-02-06T06:51:50.764Z,2.43
2018-02-06T06:54:18.339Z,2.63
2018-02-06T06:56:45.871Z,2.53
2018-02-06T06:59:13.313Z,2.30
2018-02-06T07:01:40.961Z,2.10
2018-02-06T07:04:08.412Z,2.20
2018-02-06T07:06:35.868Z,2.90
2018-02-06T07:09:03.319Z,2.83
2018-02-06T07:11:30.772Z,2.10
2018-02-06T07:13:58.329Z,2.00
2018-02-06T07:16:26.088Z,2.20
2018-02-06T07:18:53.541Z,2.13
2018-02-06T07:21:20.996Z,2.10
2018-02-06T07:23:48.756Z,2.13
2018-02-06T07:26:16.520Z,2.37
2018-02-06T07:28:44.042Z,2.27
2018-02-06T07:31:11.500Z,2.47
2018-02-06T07:33:38.988Z,1.70
2018-02-06T07:36:06.657Z,1.90
2018-02-06T07:38:34.113Z,2.10
2018-02-06T07:41:01.581Z,2.10
2018-02-06T07:43:29.210Z,2.17
2018-02-06T07:45:56.684Z,2.00
2018-02-06T07:48:24.133Z,2.50
2018-02-06T07:50:51.705Z,2.23
2018-02-06T07:53:19.154Z,1.77
2018-02-06T07:55:46.825Z,1.90
2018-02-06T07:58:14.278Z,1.87
2018-02-06T08:00:41.761Z,1.80
2018-02-06T08:03:09.317Z,1.80
2018-02-06T08:05:37.083Z,2.00
2018-02-06T08:08:04.840Z,2.00
2018-02-06T08:10:32.605Z,2.10
2018-02-06T08:13:00.067Z,2.03
2018-02-06T08:15:27.625Z,1.60
2018-02-06T08:17:55.193Z,1.90
2018-02-06T08:20:22.649Z,1.87
2018-02-06T08:22:50.109Z,1.90
2018-02-06T08:25:17.560Z,1.90
2018-02-06T08:27:45.124Z,2.03
2018-02-06T08:30:12.688Z,1.80
2018-02-06T08:32:40.150Z,1.90
2018-02-06T08:35:07.801Z,1.90
2018-02-06T08:37:35.560Z,1.97
2018-02-06T08:40:03.223Z,1.70
2018-02-06T08:42:30.789Z,1.67
2018-02-06T08:44:58.236Z,1.90
2018-02-06T08:47:25.895Z,1.50
2018-02-06T08:49:53.341Z,1.90
2018-02-06T08:52:20.793Z,1.83
2018-02-06T08:54:48.558Z,1.80
2018-02-06T08:57:16.152Z,1.80
2018-02-06T08:59:43.706Z,1.80
2018-02-06T09:02:11.253Z,1.53
2018-02-06T09:04:38.700Z,1.87
2018-02-06T09:07:06.205Z,2.23
2018-02-06T09:09:33.750Z,1.50
2018-02-06T09:12:01.685Z,1.57
2018-02-06T09:14:29.125Z,1.70
2018-02-06T09:16:56.614Z,1.87
2018-02-06T09:19:24.194Z,1.37
2018-02-06T09:21:51.962Z,1.80
2018-02-06T09:24:19.411Z,1.80
2018-02-06T09:26:46.877Z,1.80
2018-02-06T09:29:14.345Z,1.73
2018-02-06T09:31:41.973Z,1.70
2018-02-06T09:34:09.420Z,1.80
2018-02-06T09:36:36.875Z,1.60
2018-02-06T09:39:04.331Z,1.57
2018-02-06T09:41:31.924Z,1.60
2018-02-06T09:43:59.373Z,1.63
2018-02-06T09:46:26.928Z,1.60
2018-02-06T09:48:54.604Z,1.40
2018-02-06T09:51:22.379Z,1.53
2018-02-06T09:53:50.019Z,1.60
2018-02-06T09:56:17.512Z,1.83
2018-02-06T09:58:45.056Z,1.37
2018-02-06T10:01:12.693Z,1.60
2018-02-06T10:03:40.146Z,1.50
2018-02-06T10:06:07.605Z,1.90
2018-02-06T10:08:35.056Z,1.90
2018-02-06T10:11:02.577Z,1.50
2018-02-06T10:13:30.025Z,1.43
2018-02-06T10:15:57.569Z,1.27
2018-02-06T10:18:25.021Z,1.40
2018-02-06T10:20:52.633Z,1.63
2018-02-06T10:23:21.037Z,1.50
2018-02-06T10:25:48.498Z,1.60
2018-02-06T10:28:16.093Z,1.60
2018-02-06T10:30:43.601Z,1.67
2018-02-06T10:33:11.187Z,1.40
2018-02-06T10:35:38.635Z,1.50
2018-02-06T10:38:06.107Z,1.30
2018-02-06T10:40:33.565Z,1.67
2018-02-06T10:43:01.056Z,1.63
2018-02-06T10:45:28.500Z,1.60
2018-02-06T10:47:55.959Z,1.40
2018-02-06T10:50:23.416Z,1.37
2018-02-06T10:52:50.881Z,1.60
2018-02-06T10:55:18.345Z,1.40
2018-02-06T10:57:45.886Z,1.20
2018-02-06T11:00:13.521Z,1.40
2018-02-06T11:02:40.972Z,1.40
2018-02-06T11:05:08.574Z,1.37
2018-02-06T11:07:36.032Z,1.47
2018-02-06T11:10:03.663Z,1.40
2018-02-06T11:12:31.117Z,1.50
2018-02-06T11:14:58.708Z,1.60
2018-02-06T11:17:26.168Z,1.70
2018-02-06T11:19:53.616Z,1.23
2018-02-06T11:22:21.072Z,1.20
2018-02-06T11:24:48.521Z,1.43
2018-02-06T11:27:15.998Z,1.90
2018-02-06T11:29:43.440Z,1.40
2018-02-06T11:32:10.911Z,1.33
2018-02-06T11:34:38.540Z,1.23
2018-02-06T11:37:06.052Z,1.50
2018-02-06T11:39:33.591Z,1.70
2018-02-06T11:42:01.236Z,1.50
2018-02-06T11:44:28.722Z,1.33
2018-02-06T11:46:56.179Z,1.20
2018-02-06T11:49:23.902Z,1.40
2018-02-06T11:51:51.348Z,1.20
2018-02-06T11:54:18.949Z,1.33
2018-02-06T11:56:46.596Z,1.70
2018-02-06T11:59:14.044Z,1.00
2018-02-06T12:01:41.506Z,1.50
2018-02-06T12:04:08.990Z,1.23
2018-02-06T12:06:36.486Z,1.50
2018-02-06T12:09:03.930Z,1.40
2018-02-06T12:11:31.392Z,1.20
2018-02-06T12:13:59.606Z,1.30
2018-02-06T12:16:27.181Z,1.40
2018-02-06T12:18:54.628Z,1.50
2018-02-06T12:21:22.088Z,1.40
2018-02-06T12:23:49.596Z,1.30
2018-02-06T12:26:17.037Z,1.70
2018-02-06T12:28:44.499Z,1.33
2018-02-06T12:31:11.957Z,1.20
2018-02-06T12:33:39.508Z,1.30
2018-02-06T12:36:06.945Z,1.30
2018-02-06T12:38:34.506Z,1.20
2018-02-06T12:41:02.053Z,1.30
2018-02-06T12:43:29.650Z,1.40
2018-02-06T12:45:57.280Z,1.60
2018-02-06T12:48:24.897Z,1.40
2018-02-06T12:50:52.516Z,1.40
2018-02-06T12:53:19.972Z,1.13
2018-02-06T12:55:47.554Z,1.20
2018-02-06T12:58:15.006Z,1.33
2018-02-06T13:00:42.655Z,1.43
2018-02-06T13:03:10.408Z,1.33
2018-02-06T13:05:37.900Z,1.30
2018-02-06T13:08:06.288Z,1.20
2018-02-06T13:10:33.841Z,1.40
2018-02-06T13:13:01.300Z,1.10
2018-02-06T13:15:29.052Z,1.53
2018-02-06T13:17:56.508Z,1.20
2018-02-06T13:20:24.450Z,1.07
2018-02-06T13:22:51.895Z,1.40
2018-02-06T13:25:19.344Z,1.40
2018-02-06T13:27:47.880Z,1.40
2018-02-06T13:30:15.346Z,1.47
2018-02-06T13:32:42.791Z,1.20
2018-02-06T13:35:10.570Z,1.50
2018-02-06T13:37:38.028Z,1.20
2018-02-06T13:40:05.650Z,1.50
2018-02-06T13:42:33.270Z,1.07
2018-02-06T13:45:01.016Z,1.40
2018-02-06T13:47:28.572Z,1.30
2018-02-06T13:49:56.100Z,1.40
2018-02-06T13:52:23.684Z,1.30
2018-02-06T13:54:51.316Z,1.23
2018-02-06T13:57:18.941Z,1.37
2018-02-06T13:59:46.729Z,1.40
2018-02-06T14:02:14.449Z,1.20
2018-02-06T14:04:42.077Z,0.93
2018-02-06T14:07:09.577Z,1.03
2018-02-06T14:09:37.028Z,1.10
2018-02-06T14:12:04.488Z,1.20
2018-02-06T14:14:31.946Z,1.20
2018-02-06T14:16:59.408Z,1.30
2018-02-06T14:19:26.964Z,1.00
2018-02-06T14:21:54.582Z,1.07
2018-02-06T14:24:22.182Z,1.17
2018-02-06T14:26:49.634Z,1.20
2018-02-06T14:29:17.404Z,0.90
2018-02-06T14:31:44.866Z,1.13
2018-02-06T14:34:12.629Z,1.00
2018-02-06T14:36:40.073Z,1.20
2018-02-06T14:39:07.853Z,1.07
2018-02-06T14:41:35.474Z,0.90
2018-02-06T14:44:03.073Z,1.13
2018-02-06T14:46:30.697Z,1.20
2018-02-06T14:48:58.205Z,1.20
2018-02-06T14:51:25.661Z,1.30
2018-02-06T14:53:53.209Z,1.17
2018-02-06T14:56:20.774Z,1.20
2018-02-06T14:58:48.437Z,1.30
2018-02-06T15:01:15.886Z,1.27
2018-02-06T15:03:43.669Z,1.17
2018-02-06T15:06:11.290Z,1.20
2018-02-06T15:08:38.898Z,1.20
2018-02-06T15:11:06.524Z,1.20
2018-02-06T15:13:34.016Z,1.30
2018-02-06T15:16:02.487Z,1.40
2018-02-06T15:18:29.950Z,1.40
2018-02-06T15:20:57.715Z,1.30
2018-02-06T15:23:25.317Z,1.20
2018-02-06T15:25:52.942Z,1.40
2018-02-06T15:28:20.701Z,1.23
2018-02-06T15:30:48.462Z,1.40
2018-02-06T15:33:15.932Z,1.17
2018-02-06T15:35:43.472Z,1.13
2018-02-06T15:38:10.924Z,1.30
2018-02-06T15:40:38.461Z,1.60
2018-02-06T15:43:05.945Z,1.30
2018-02-06T15:45:33.420Z,1.50
2018-02-06T15:48:00.877Z,1.40
2018-02-06T15:50:28.340Z,1.30
2018-02-06T15:52:55.792Z,1.30
2018-02-06T15:55:23.249Z,1.30
2018-02-06T15:57:50.710Z,1.20
2018-02-06T16:00:20.997Z,1.30
2018-02-06T16:02:48.468Z,1.20
2018-02-06T16:05:15.929Z,1.27
2018-02-06T16:07:43.408Z,1.20
2018-02-06T16:10:10.963Z,1.33
2018-02-06T16:12:38.620Z,1.40
2018-02-06T16:15:06.077Z,1.50
2018-02-06T16:17:33.525Z,1.40
2018-02-06T16:20:01.002Z,1.20
2018-02-06T16:22:28.763Z,1.03
2018-02-06T16:24:56.524Z,1.30
2018-02-06T16:27:24.228Z,1.30
2018-02-06T16:29:51.680Z,1.70
2018-02-06T16:32:19.218Z,1.77
2018-02-06T16:34:46.849Z,1.17
2018-02-06T16:37:14.425Z,1.40
2018-02-06T16:39:41.885Z,1.37
2018-02-06T16:42:09.336Z,1.00
2018-02-06T16:44:36.973Z,1.20
2018-02-06T16:47:04.439Z,1.20
2018-02-06T16:49:31.896Z,1.20
2018-02-06T16:51:59.345Z,1.43
2018-02-06T16:54:26.808Z,1.20
2018-02-06T16:56:54.405Z,1.17
2018-02-06T16:59:21.872Z,1.30
2018-02-06T17:01:49.316Z,1.40
2018-02-06T17:04:16.958Z,1.40
2018-02-06T17:06:44.468Z,1.27
2018-02-06T17:09:11.930Z,1.20
2018-02-06T17:11:39.464Z,1.23
2018-02-06T17:14:07.110Z,1.33
2018-02-06T17:16:35.185Z,1.20
2018-02-06T17:19:04.223Z,1.20
2018-02-06T17:21:31.673Z,1.30
2018-02-06T17:23:59.210Z,1.10
2018-02-06T17:26:27.222Z,1.27
2018-02-06T17:28:54.741Z,1.07
2018-02-06T17:31:22.426Z,1.43
2018-02-06T17:33:51.696Z,1.20
2018-02-06T17:36:19.685Z,1.57
2018-02-06T17:38:48.096Z,1.13
2018-02-06T17:41:15.657Z,0.97
2018-02-06T17:43:43.921Z,1.20
2018-02-06T17:46:12.333Z,1.30
2018-02-06T17:48:39.815Z,1.20
2018-02-06T17:51:08.340Z,1.40
2018-02-06T17:53:35.802Z,1.40
2018-02-06T17:56:03.249Z,1.13
2018-02-06T17:58:30.866Z,1.00
2018-02-06T18:00:58.325Z,1.10
2018-02-06T18:03:27.319Z,1.10
2018-02-06T18:05:54.888Z,1.23
2018-02-06T18:08:22.344Z,1.57
2018-02-06T18:10:50.125Z,1.40
2018-02-06T18:13:17.762Z,1.30
2018-02-06T18:15:45.251Z,1.37
2018-02-06T18:18:12.701Z,1.10
2018-02-06T18:20:40.801Z,1.30
2018-02-06T18:23:09.396Z,1.20
2018-02-06T18:25:37.609Z,1.20
2018-02-06T18:28:05.154Z,1.00
2018-02-06T18:30:33.504Z,1.40
2018-02-06T18:33:02.657Z,1.27
2018-02-06T18:35:30.822Z,1.00
2018-02-06T18:37:58.349Z,1.27
2018-02-06T18:40:26.066Z,1.20
2018-02-06T18:42:56.010Z,1.37
2018-02-06T18:45:23.636Z,1.20
2018-02-06T18:47:51.130Z,1.03
2018-02-06T18:50:18.577Z,1.03
2018-02-06T18:52:46.145Z,1.40
2018-02-06T18:55:13.711Z,1.47
2018-02-06T18:57:43.140Z,1.43
2018-02-06T19:00:10.705Z,1.70
2018-02-06T19:02:38.159Z,1.40
2018-02-06T19:05:05.873Z,1.20
2018-02-06T19:07:33.333Z,1.43
2018-02-06T19:10:00.968Z,1.30
2018-02-06T19:12:28.489Z,1.30
2018-02-06T19:14:55.953Z,1.27
2018-02-06T19:17:23.401Z,1.30
2018-02-06T19:19:50.868Z,1.20
2018-02-06T19:22:18.315Z,1.53
2018-02-06T19:24:46.244Z,1.20
2018-02-06T19:27:13.777Z,1.50
2018-02-06T19:29:41.254Z,1.20
2018-02-06T19:32:10.091Z,1.47
2018-02-06T19:34:38.396Z,1.20
2018-02-06T19:37:05.924Z,1.37
2018-02-06T19:39:33.633Z,1.17
2018-02-06T19:42:02.912Z,1.30
2018-02-06T19:44:30.355Z,1.30
2018-02-06T19:46:57.812Z,1.20
2018-02-06T19:49:25.950Z,1.13
2018-02-06T19:51:53.401Z,1.80
2018-02-06T19:54:23.943Z,1.23
2018-02-06T19:56:51.560Z,1.30
2018-02-06T19:59:19.105Z,1.60
2018-02-06T20:01:46.615Z,1.20
2018-02-06T20:04:15.778Z,1.53
2018-02-06T20:06:44.763Z,1.50
2018-02-06T20:09:12.323Z,1.43
2018-02-06T20:11:39.845Z,1.30
2018-02-06T20:14:07.680Z,1.50
2018-02-06T20:16:36.686Z,1.23
2018-02-06T20:19:06.701Z,1.20
2018-02-06T20:21:34.159Z,1.20
2018-02-06T20:24:01.674Z,1.23
2018-02-06T20:26:29.923Z,1.30
2018-02-06T20:28:57.485Z,1.47
2018-02-06T20:31:25.749Z,1.10
2018-02-06T20:33:53.203Z,1.13
2018-02-06T20:36:20.660Z,1.30
2018-02-06T20:38:52.041Z,1.30
2018-02-06T20:41:19.492Z,1.17
2018-02-06T20:43:47.204Z,1.30
2018-02-06T20:46:15.472Z,1.30
2018-02-06T20:48:43.890Z,1.57
2018-02-06T20:51:11.555Z,1.03
2018-02-06T20:53:39.217Z,1.00
2018-02-06T20:56:07.141Z,1.20
2018-02-06T20:58:34.577Z,1.00
2018-02-06T21:01:02.067Z,1.30
2018-02-06T21:03:29.528Z,1.40
2018-02-06T21:05:56.988Z,1.07
2018-02-06T21:08:24.481Z,0.93
2018-02-06T21:10:51.940Z,1.30
2018-02-06T21:13:19.396Z,1.20
2018-02-06T21:15:46.872Z,1.37
2018-02-06T21:18:14.405Z,1.27
2018-02-06T21:20:41.902Z,1.70
2018-02-06T21:23:09.637Z,4.43
2018-02-06T21:25:37.261Z,6.30
2018-02-06T21:28:04.757Z,5.70
2018-02-06T21:30:32.224Z,5.37
2018-02-06T21:32:59.680Z,4.73
2018-02-06T21:35:27.137Z,5.30
2018-02-06T21:37:55.608Z,5.10
2018-02-06T21:40:23.256Z,4.37
2018-02-06T21:42:50.707Z,4.30
2018-02-06T21:45:18.196Z,3.93
2018-02-06T21:47:46.420Z,4.07
2018-02-06T21:50:14.128Z,4.00
2018-02-06T21:52:41.593Z,3.73
2018-02-06T21:55:09.050Z,5.13
2018-02-06T21:57:36.808Z,3.80
2018-02-06T22:00:04.258Z,3.67
2018-02-06T22:02:31.727Z,4.10
2018-02-06T22:04:59.181Z,3.50
2018-02-06T22:07:26.635Z,3.80
2018-02-06T22:09:54.277Z,3.50
2018-02-06T22:12:21.732Z,3.27
2018-02-06T22:14:49.311Z,3.23
2018-02-06T22:17:17.071Z,3.90
2018-02-06T22:19:44.880Z,2.80
2018-02-06T22:22:12.604Z,3.73
2018-02-06T22:24:40.051Z,3.50
2018-02-06T22:27:07.697Z,3.57
2018-02-06T22:29:35.282Z,3.30
2018-02-06T22:32:03.047Z,3.50
2018-02-06T22:34:30.684Z,2.83
2018-02-06T22:36:58.270Z,3.30
2018-02-06T22:39:25.778Z,3.30
2018-02-06T22:41:53.378Z,2.80
2018-02-06T22:44:20.832Z,3.23
2018-02-06T22:46:48.300Z,3.30
2018-02-06T22:49:15.868Z,3.10
2018-02-06T22:51:43.328Z,3.37
2018-02-06T22:54:10.965Z,3.20
2018-02-06T22:56:38.545Z,3.07
2018-02-06T22:59:05.994Z,2.97
2018-02-06T23:01:33.453Z,3.13
2018-02-06T23:04:01.105Z,3.30
2018-02-06T23:06:28.571Z,3.10
2018-02-06T23:08:56.034Z,2.87
2018-02-06T23:11:23.487Z,3.20
2018-02-06T23:13:50.964Z,2.90
2018-02-06T23:16:18.433Z,2.80
2018-02-06T23:18:45.889Z,2.80
2018-02-06T23:21:13.358Z,3.10
2018-02-06T23:23:40.804Z,2.97
2018-02-06T23:26:08.287Z,3.10
2018-02-06T23:28:35.820Z,3.37
2018-02-06T23:31:03.278Z,2.93
2018-02-06T23:33:30.745Z,3.10
2018-02-06T23:35:58.490Z,2.97
2018-02-06T23:38:26.005Z,2.90
2018-02-06T23:40:53.592Z,2.90
2018-02-06T23:43:21.169Z,2.90
2018-02-06T23:45:48.624Z,2.60
2018-02-06T23:48:16.072Z,3.23
2018-02-06T23:50:43.732Z,2.90
2018-02-06T23:53:11.193Z,3.00
2018-02-06T23:55:38.653Z,2.93
2018-02-06T23:58:06.107Z,2.70
